createdAt,value
2018-10-02T00:02:59.660Z,3.50
2018-10-02T00:08:03.257Z,2.83
2018-10-02T00:13:13.324Z,3.70
2018-10-02T00:18:16.811Z,3.23
2018-10-02T00:23:20.840Z,3.40
2018-10-02T00:28:24.303Z,2.83
2018-10-02T00:33:27.976Z,2.27
2018-10-02T00:38:31.526Z,3.13
2018-10-02T00:43:35.400Z,2.60
2018-10-02T00:48:38.920Z,2.57
2018-10-02T00:53:49.583Z,2.80
2018-10-02T00:58:53.986Z,2.10
2018-10-02T01:03:57.614Z,2.87
2018-10-02T01:09:01.484Z,3.60
2018-10-02T01:14:05.940Z,3.27
2018-10-02T01:19:09.965Z,2.07
2018-10-02T01:24:14.122Z,2.27
2018-10-02T01:29:17.857Z,2.90
2018-10-02T01:34:21.400Z,2.40
2018-10-02T01:39:25.262Z,2.07
2018-10-02T01:44:29.100Z,2.90
2018-10-02T01:49:32.581Z,3.10
2018-10-02T01:54:37.008Z,2.90
2018-10-02T01:59:40.760Z,2.90
2018-10-02T02:04:44.176Z,2.27
2018-10-02T02:09:48.381Z,3.50
2018-10-02T02:14:52.110Z,3.03
2018-10-02T02:19:56.193Z,2.00
2018-10-02T02:25:00.446Z,2.13
2018-10-02T02:30:03.971Z,2.83
2018-10-02T02:35:08.180Z,2.03
2018-10-02T02:40:12.492Z,2.57
2018-10-02T02:45:16.044Z,2.60
2018-10-02T02:50:26.763Z,2.67
2018-10-02T02:55:30.806Z,2.33
2018-10-02T03:00:34.871Z,1.90
2018-10-02T03:05:39.031Z,1.90
2018-10-02T03:10:42.878Z,2.57
2018-10-02T03:15:46.412Z,3.27
2018-10-02T03:20:50.100Z,2.60
2018-10-02T03:25:54.467Z,2.73
2018-10-02T03:30:57.914Z,3.13
2018-10-02T03:36:01.617Z,2.47
2018-10-02T03:41:05.509Z,2.47
2018-10-02T03:46:09.387Z,3.43
2018-10-02T03:51:13.136Z,2.90
2018-10-02T03:56:16.906Z,3.33
2018-10-02T04:01:20.605Z,2.97
2018-10-02T04:06:24.030Z,2.90
2018-10-02T04:11:27.971Z,2.43
2018-10-02T04:16:32.187Z,1.70
2018-10-02T04:21:36.616Z,2.33
2018-10-02T04:26:40.281Z,2.10
2018-10-02T04:31:43.728Z,3.10
2018-10-02T04:36:47.218Z,2.20
2018-10-02T04:42:03.818Z,2.73
2018-10-02T04:47:13.974Z,2.37
2018-10-02T04:52:19.900Z,2.43
2018-10-02T04:57:23.470Z,2.33
2018-10-02T05:02:27.138Z,2.47
2018-10-02T05:07:30.531Z,2.20
2018-10-02T05:12:36.237Z,2.27
2018-10-02T05:17:40.051Z,3.03
2018-10-02T05:22:49.605Z,2.03
2018-10-02T05:27:53.484Z,1.90
2018-10-02T05:32:57.922Z,1.80
2018-10-02T05:38:01.691Z,1.80
2018-10-02T05:43:05.920Z,2.77
2018-10-02T05:48:12.316Z,2.47
2018-10-02T05:53:17.117Z,2.30
2018-10-02T05:58:21.121Z,2.30
2018-10-02T06:03:24.983Z,2.00
2018-10-02T06:08:28.562Z,2.30
2018-10-02T06:13:32.893Z,1.70
2018-10-02T06:18:36.586Z,2.07
2018-10-02T06:23:39.850Z,2.23
2018-10-02T06:28:44.223Z,1.80
2018-10-02T06:33:47.592Z,2.30
2018-10-02T06:38:51.083Z,2.50
2018-10-02T06:43:54.715Z,2.73
2018-10-02T06:48:58.190Z,2.00
2018-10-02T06:54:01.580Z,1.50
2018-10-02T06:59:05.613Z,1.73
2018-10-02T07:04:08.975Z,1.20
2018-10-02T07:09:12.599Z,3.13
2018-10-02T07:14:30.853Z,1.80
2018-10-02T07:19:34.251Z,2.47
2018-10-02T07:24:37.733Z,3.00
2018-10-02T07:29:41.556Z,3.60
2018-10-02T07:34:45.490Z,2.27
2018-10-02T07:39:48.964Z,3.83
2018-10-02T07:44:52.476Z,2.40
2018-10-02T07:49:55.900Z,2.90
2018-10-02T07:54:59.342Z,2.40
2018-10-02T08:00:02.930Z,2.33
2018-10-02T08:05:06.867Z,2.73
2018-10-02T08:10:10.097Z,2.70
2018-10-02T08:15:13.551Z,3.20
2018-10-02T08:20:16.957Z,3.20
2018-10-02T08:25:21.194Z,2.70
2018-10-02T08:30:25.222Z,3.17
2018-10-02T08:35:29.060Z,3.83
2018-10-02T08:40:32.488Z,2.20
2018-10-02T08:45:36.265Z,3.73
2018-10-02T08:50:39.819Z,3.30
2018-10-02T08:55:43.311Z,4.50
2018-10-02T09:00:47.029Z,3.40
2018-10-02T09:05:50.555Z,3.00
2018-10-02T09:10:54.417Z,3.63
2018-10-02T09:15:58.255Z,3.43
2018-10-02T09:21:01.484Z,3.90
2018-10-02T09:26:04.914Z,3.20
2018-10-02T09:31:14.018Z,2.73
2018-10-02T09:38:24.968Z,21.77
2018-10-02T09:43:33.157Z,3.00
2018-10-02T09:48:36.664Z,5.30
2018-10-02T09:53:40.668Z,3.60
2018-10-02T09:58:44.047Z,4.43
2018-10-02T10:03:47.431Z,3.47
2018-10-02T10:08:50.891Z,4.00
2018-10-02T10:13:54.217Z,4.23
2018-10-02T10:18:57.686Z,2.70
2018-10-02T10:24:01.447Z,3.43
2018-10-02T10:29:04.960Z,3.03
2018-10-02T10:34:08.717Z,3.17
2018-10-02T10:39:12.177Z,3.90
2018-10-02T10:44:15.712Z,5.10
2018-10-02T10:49:19.136Z,4.97
2018-10-02T10:54:22.576Z,5.00
2018-10-02T10:59:26.359Z,6.40
2018-10-02T11:04:29.785Z,6.30
2018-10-02T11:09:34.010Z,5.33
2018-10-02T11:14:37.588Z,5.80
2018-10-02T11:19:41.972Z,6.17
2018-10-02T11:24:45.451Z,6.77
2018-10-02T11:29:49.384Z,8.17
2018-10-02T11:34:53.266Z,8.33
2018-10-02T11:39:56.755Z,7.30
2018-10-02T11:45:02.290Z,7.27
2018-10-02T11:50:06.540Z,8.30
2018-10-02T11:55:10.039Z,10.63
2018-10-02T12:00:14.057Z,10.17
2018-10-02T12:05:17.778Z,11.47
2018-10-02T12:10:21.369Z,11.43
2018-10-02T12:15:24.745Z,13.20
2018-10-02T12:20:28.241Z,11.20
2018-10-02T12:25:31.747Z,10.40
2018-10-02T12:30:35.163Z,9.67
2018-10-02T12:35:39.189Z,8.40
2018-10-02T12:40:46.934Z,8.57
2018-10-02T12:45:51.089Z,11.30
2018-10-02T12:50:54.716Z,9.33
2018-10-02T12:55:58.401Z,9.10
2018-10-02T13:01:01.813Z,7.07
2018-10-02T13:06:05.609Z,7.80
2018-10-02T13:11:09.765Z,8.67
2018-10-02T13:16:13.140Z,8.07
2018-10-02T13:21:16.673Z,7.27
2018-10-02T13:26:24.686Z,8.20
2018-10-02T13:31:28.986Z,9.10
2018-10-02T13:36:33.169Z,10.40
2018-10-02T13:41:38.775Z,9.63
2018-10-02T13:46:43.096Z,9.60
2018-10-02T13:51:46.553Z,13.03
2018-10-02T13:56:50.036Z,10.30
2018-10-02T14:01:53.882Z,8.37
2018-10-02T14:06:57.521Z,9.27
2018-10-02T14:12:00.949Z,9.27
2018-10-02T14:17:04.369Z,7.57
2018-10-02T14:22:07.881Z,7.90
2018-10-02T14:27:11.773Z,6.40
2018-10-02T14:32:15.599Z,7.50
2018-10-02T14:37:19.605Z,8.37
2018-10-02T14:42:23.184Z,7.73
2018-10-02T14:47:26.588Z,9.60
2018-10-02T14:52:30.264Z,9.70
2018-10-02T14:57:37.674Z,10.27
2018-10-02T15:02:42.154Z,8.30
2018-10-02T15:07:47.025Z,6.53
2018-10-02T15:12:50.540Z,6.00
2018-10-02T15:17:53.949Z,5.40
2018-10-02T15:22:57.494Z,6.57
2018-10-02T15:28:00.848Z,5.53
2018-10-02T15:33:04.176Z,6.63
2018-10-02T15:38:08.436Z,6.37
2018-10-02T15:43:11.741Z,7.60
2018-10-02T15:48:15.108Z,6.90
2018-10-02T15:53:18.435Z,7.87
2018-10-02T15:58:21.833Z,6.57
2018-10-02T16:03:25.273Z,8.67
2018-10-02T16:08:30.105Z,7.70
2018-10-02T16:13:33.747Z,7.93
2018-10-02T16:19:00.293Z,7.43
2018-10-02T16:24:05.531Z,3.60
2018-10-02T16:29:08.943Z,0.50
2018-10-02T16:34:12.460Z,0.50
2018-10-02T16:39:16.433Z,0.50
2018-10-02T16:44:20.421Z,0.80
2018-10-02T16:49:23.835Z,0.50
2018-10-02T16:54:27.573Z,8.07
2018-10-02T16:59:31.244Z,7.90
2018-10-02T17:04:34.988Z,6.70
2018-10-02T17:09:38.857Z,6.33
2018-10-02T17:14:42.869Z,6.70
2018-10-02T17:19:46.485Z,7.77
2018-10-02T17:24:50.188Z,5.37
2018-10-02T17:29:54.628Z,5.13
2018-10-02T17:34:58.112Z,5.73
2018-10-02T17:40:01.800Z,7.00
2018-10-02T17:45:06.232Z,6.90
2018-10-02T17:50:10.483Z,9.90
2018-10-02T17:55:14.304Z,7.60
2018-10-02T18:00:18.006Z,7.23
2018-10-02T18:05:22.252Z,7.90
2018-10-02T18:10:26.630Z,7.27
2018-10-02T18:15:30.345Z,8.17
2018-10-02T18:20:34.774Z,7.20
2018-10-02T18:25:38.726Z,9.80
2018-10-02T18:30:42.817Z,8.17
2018-10-02T18:35:47.207Z,9.37
2018-10-02T18:40:51.779Z,10.50
2018-10-02T18:45:56.818Z,11.90
2018-10-02T18:51:01.260Z,7.53
2018-10-02T18:56:06.053Z,6.30
2018-10-02T19:01:10.326Z,7.97
2018-10-02T19:06:14.288Z,9.17
2018-10-02T19:11:23.714Z,7.13
2018-10-02T19:16:32.209Z,7.73
2018-10-02T19:21:43.694Z,7.20
2018-10-02T19:26:48.978Z,7.93
2018-10-02T19:31:58.467Z,5.63
2018-10-02T19:37:02.811Z,11.00
2018-10-02T19:42:07.557Z,8.57
2018-10-02T19:47:12.173Z,9.47
2018-10-02T19:52:17.463Z,8.30
2018-10-02T19:57:21.859Z,8.77
2018-10-02T20:02:25.844Z,6.70
2018-10-02T20:07:30.324Z,5.77
2018-10-02T20:12:35.145Z,8.13
2018-10-02T20:17:40.075Z,8.90
2018-10-02T20:22:43.905Z,11.67
2018-10-02T20:27:48.219Z,8.60
2018-10-02T20:32:52.464Z,10.13
2018-10-02T20:37:56.332Z,10.67
2018-10-02T20:43:00.573Z,11.83
2018-10-02T20:48:04.362Z,12.23
2018-10-02T20:53:08.312Z,9.87
2018-10-02T20:58:12.262Z,12.00
2018-10-02T21:03:16.385Z,10.50
2018-10-02T21:08:28.965Z,7.30
2018-10-02T21:13:33.560Z,6.77
2018-10-02T21:18:37.105Z,5.43
2018-10-02T21:23:40.622Z,6.40
2018-10-02T21:28:44.579Z,9.10
2018-10-02T21:33:48.692Z,9.40
2018-10-02T21:38:52.920Z,13.07
2018-10-02T21:43:56.982Z,12.47
2018-10-02T21:49:00.562Z,9.60
2018-10-02T21:54:04.059Z,10.00
2018-10-02T21:59:07.746Z,8.20
2018-10-02T22:04:11.304Z,8.80
2018-10-02T22:09:15.520Z,13.30
2018-10-02T22:14:19.323Z,11.23
2018-10-02T22:19:23.044Z,10.10
2018-10-02T22:24:26.672Z,8.70
2018-10-02T22:29:30.348Z,10.67
2018-10-02T22:34:33.716Z,9.73
2018-10-02T22:39:37.353Z,9.90
2018-10-02T22:44:41.762Z,11.30
2018-10-02T22:49:45.099Z,9.33
2018-10-02T22:54:48.888Z,10.90
2018-10-02T22:59:52.433Z,9.67
2018-10-02T23:04:56.237Z,11.37
2018-10-02T23:10:00.636Z,8.60
2018-10-02T23:15:04.836Z,9.87
2018-10-02T23:20:08.658Z,9.33
2018-10-02T23:25:12.336Z,9.63
2018-10-02T23:30:16.061Z,10.80
2018-10-02T23:35:19.589Z,13.30
2018-10-02T23:40:23.629Z,8.70
2018-10-02T23:45:28.497Z,7.43
2018-10-02T23:50:32.303Z,7.87
2018-10-02T23:55:35.873Z,11.50
